sensor_id;sensor_type;location;lat;lon;timestamp;temperature;humidity
39677;DHT22;27789;50.840;4.386;2022-10-17T00:00:42;16.60;99.90
39677;DHT22;27789;50.840;4.386;2022-10-17T00:03:08;16.60;99.90
39677;DHT22;27789;50.840;4.386;2022-10-17T00:05:38;16.60;99.90
39677;DHT22;27789;50.840;4.386;2022-10-17T00:08:04;16.60;99.90
39677;DHT22;27789;50.840;4.386;2022-10-17T00:10:30;16.60;99.90
39677;DHT22;27789;50.840;4.386;2022-10-17T00:12:55;16.70;99.90
39677;DHT22;27789;50.840;4.386;2022-10-17T00:15:21;16.60;99.90
39677;DHT22;27789;50.840;4.386;2022-10-17T00:17:46;16.60;99.90
39677;DHT22;27789;50.840;4.386;2022-10-17T00:20:12;16.70;99.90
39677;DHT22;27789;50.840;4.386;2022-10-17T00:22:38;16.70;99.90
39677;DHT22;27789;50.840;4.386;2022-10-17T00:25:04;16.70;99.90
39677;DHT22;27789;50.840;4.386;2022-10-17T00:27:30;16.80;99.90
39677;DHT22;27789;50.840;4.386;2022-10-17T00:29:58;16.80;99.90
39677;DHT22;27789;50.840;4.386;2022-10-17T00:32:24;16.80;99.90
39677;DHT22;27789;50.840;4.386;2022-10-17T00:34:49;16.80;99.90
39677;DHT22;27789;50.840;4.386;2022-10-17T00:37:15;16.90;99.90
39677;DHT22;27789;50.840;4.386;2022-10-17T00:39:40;16.90;99.90
39677;DHT22;27789;50.840;4.386;2022-10-17T00:42:06;17.00;99.90
39677;DHT22;27789;50.840;4.386;2022-10-17T00:47:00;17.10;99.90
39677;DHT22;27789;50.840;4.386;2022-10-17T00:49:29;17.10;99.90
39677;DHT22;27789;50.840;4.386;2022-10-17T00:51:58;17.20;99.90
39677;DHT22;27789;50.840;4.386;2022-10-17T00:54:30;17.20;99.90
39677;DHT22;27789;50.840;4.386;2022-10-17T00:56:57;17.30;99.90
39677;DHT22;27789;50.840;4.386;2022-10-17T00:59:23;17.30;99.90
39677;DHT22;27789;50.840;4.386;2022-10-17T01:01:59;17.30;99.90
39677;DHT22;27789;50.840;4.386;2022-10-17T01:04:26;17.40;99.90
39677;DHT22;27789;50.840;4.386;2022-10-17T01:06:52;17.40;99.90
39677;DHT22;27789;50.840;4.386;2022-10-17T01:09:17;17.50;99.90
39677;DHT22;27789;50.840;4.386;2022-10-17T01:14:32;17.40;99.90
39677;DHT22;27789;50.840;4.386;2022-10-17T01:17:10;17.50;99.90
39677;DHT22;27789;50.840;4.386;2022-10-17T01:22:35;17.50;99.90
39677;DHT22;27789;50.840;4.386;2022-10-17T01:30:41;17.50;99.90
39677;DHT22;27789;50.840;4.386;2022-10-17T01:33:11;17.60;99.90
39677;DHT22;27789;50.840;4.386;2022-10-17T01:38:44;17.60;99.90
39677;DHT22;27789;50.840;4.386;2022-10-17T01:43:52;17.60;99.90
39677;DHT22;27789;50.840;4.386;2022-10-17T01:48:52;17.50;99.90
39677;DHT22;27789;50.840;4.386;2022-10-17T01:51:44;17.60;99.90
39677;DHT22;27789;50.840;4.386;2022-10-17T01:54:24;17.60;99.90
39677;DHT22;27789;50.840;4.386;2022-10-17T01:56:57;17.60;99.90
39677;DHT22;27789;50.840;4.386;2022-10-17T02:01:54;17.60;99.90
39677;DHT22;27789;50.840;4.386;2022-10-17T02:04:21;17.70;99.90
39677;DHT22;27789;50.840;4.386;2022-10-17T02:06:47;17.70;99.90
39677;DHT22;27789;50.840;4.386;2022-10-17T02:09:22;17.70;99.90
39677;DHT22;27789;50.840;4.386;2022-10-17T02:14:39;17.80;99.90
39677;DHT22;27789;50.840;4.386;2022-10-17T02:17:08;17.80;99.90
39677;DHT22;27789;50.840;4.386;2022-10-17T02:19:44;17.80;99.90
39677;DHT22;27789;50.840;4.386;2022-10-17T02:27:32;17.80;99.90
39677;DHT22;27789;50.840;4.386;2022-10-17T02:30:10;17.80;99.90
39677;DHT22;27789;50.840;4.386;2022-10-17T02:32:51;17.80;99.90
39677;DHT22;27789;50.840;4.386;2022-10-17T02:35:20;17.80;99.90
39677;DHT22;27789;50.840;4.386;2022-10-17T02:37:47;17.90;99.90
39677;DHT22;27789;50.840;4.386;2022-10-17T02:40:14;17.90;99.90
39677;DHT22;27789;50.840;4.386;2022-10-17T02:42:43;17.90;99.90
39677;DHT22;27789;50.840;4.386;2022-10-17T02:45:10;17.90;99.90
39677;DHT22;27789;50.840;4.386;2022-10-17T02:50:12;18.00;99.90
39677;DHT22;27789;50.840;4.386;2022-10-17T02:55:35;18.10;99.90
39677;DHT22;27789;50.840;4.386;2022-10-17T02:58:06;18.10;99.90
39677;DHT22;27789;50.840;4.386;2022-10-17T03:00:34;18.10;99.90
39677;DHT22;27789;50.840;4.386;2022-10-17T03:02:59;18.20;99.90
39677;DHT22;27789;50.840;4.386;2022-10-17T03:05:27;18.20;99.90
39677;DHT22;27789;50.840;4.386;2022-10-17T03:07:53;18.30;99.90
39677;DHT22;27789;50.840;4.386;2022-10-17T03:10:20;18.20;99.90
39677;DHT22;27789;50.840;4.386;2022-10-17T03:12:46;18.30;99.90
39677;DHT22;27789;50.840;4.386;2022-10-17T03:15:13;18.30;99.90
39677;DHT22;27789;50.840;4.386;2022-10-17T03:17:38;18.30;99.90
39677;DHT22;27789;50.840;4.386;2022-10-17T03:20:05;18.40;99.90
39677;DHT22;27789;50.840;4.386;2022-10-17T03:22:32;18.30;99.90
39677;DHT22;27789;50.840;4.386;2022-10-17T03:24:57;18.30;99.90
39677;DHT22;27789;50.840;4.386;2022-10-17T03:27:23;18.30;99.90
39677;DHT22;27789;50.840;4.386;2022-10-17T03:29:49;18.30;99.90
39677;DHT22;27789;50.840;4.386;2022-10-17T03:32:14;18.30;99.90
39677;DHT22;27789;50.840;4.386;2022-10-17T03:34:40;18.30;99.90
39677;DHT22;27789;50.840;4.386;2022-10-17T03:37:05;18.20;99.90
39677;DHT22;27789;50.840;4.386;2022-10-17T03:39:31;18.20;99.90
39677;DHT22;27789;50.840;4.386;2022-10-17T03:41:57;18.20;99.90
39677;DHT22;27789;50.840;4.386;2022-10-17T03:44:22;18.20;99.90
39677;DHT22;27789;50.840;4.386;2022-10-17T03:46:48;18.30;99.90
39677;DHT22;27789;50.840;4.386;2022-10-17T03:49:13;18.20;99.90
39677;DHT22;27789;50.840;4.386;2022-10-17T03:51:39;18.20;99.90
39677;DHT22;27789;50.840;4.386;2022-10-17T03:54:04;18.30;99.90
39677;DHT22;27789;50.840;4.386;2022-10-17T03:56:30;18.20;99.90
39677;DHT22;27789;50.840;4.386;2022-10-17T03:58:56;18.20;99.90
39677;DHT22;27789;50.840;4.386;2022-10-17T04:01:22;18.20;99.90
39677;DHT22;27789;50.840;4.386;2022-10-17T04:03:53;18.20;99.90
39677;DHT22;27789;50.840;4.386;2022-10-17T04:06:18;18.10;99.90
39677;DHT22;27789;50.840;4.386;2022-10-17T04:08:44;18.10;99.90
39677;DHT22;27789;50.840;4.386;2022-10-17T04:11:14;18.10;99.90
39677;DHT22;27789;50.840;4.386;2022-10-17T04:13:41;18.10;99.90
39677;DHT22;27789;50.840;4.386;2022-10-17T04:16:10;18.10;99.90
39677;DHT22;27789;50.840;4.386;2022-10-17T04:18:36;18.10;99.90
39677;DHT22;27789;50.840;4.386;2022-10-17T04:21:03;18.10;99.90
39677;DHT22;27789;50.840;4.386;2022-10-17T04:23:29;18.10;99.90
39677;DHT22;27789;50.840;4.386;2022-10-17T04:25:56;18.10;99.90
39677;DHT22;27789;50.840;4.386;2022-10-17T04:28:23;18.10;99.90
39677;DHT22;27789;50.840;4.386;2022-10-17T04:31:13;18.10;99.90
39677;DHT22;27789;50.840;4.386;2022-10-17T04:33:39;18.10;99.90
39677;DHT22;27789;50.840;4.386;2022-10-17T04:36:09;18.00;99.90
39677;DHT22;27789;50.840;4.386;2022-10-17T04:38:35;18.00;99.90
39677;DHT22;27789;50.840;4.386;2022-10-17T04:41:03;18.00;99.90
39677;DHT22;27789;50.840;4.386;2022-10-17T04:43:34;18.00;99.90
39677;DHT22;27789;50.840;4.386;2022-10-17T04:46:01;17.90;99.90
39677;DHT22;27789;50.840;4.386;2022-10-17T04:48:28;17.90;99.90
39677;DHT22;27789;50.840;4.386;2022-10-17T04:50:55;18.00;99.90
39677;DHT22;27789;50.840;4.386;2022-10-17T04:53:22;17.90;99.90
39677;DHT22;27789;50.840;4.386;2022-10-17T04:55:48;18.00;99.90
39677;DHT22;27789;50.840;4.386;2022-10-17T04:58:14;18.00;99.90
39677;DHT22;27789;50.840;4.386;2022-10-17T05:00:40;18.00;99.90
39677;DHT22;27789;50.840;4.386;2022-10-17T05:03:05;18.00;99.90
39677;DHT22;27789;50.840;4.386;2022-10-17T05:05:31;17.90;99.90
39677;DHT22;27789;50.840;4.386;2022-10-17T05:07:56;18.00;99.90
39677;DHT22;27789;50.840;4.386;2022-10-17T05:10:22;18.00;99.90
39677;DHT22;27789;50.840;4.386;2022-10-17T05:12:48;18.00;99.90
39677;DHT22;27789;50.840;4.386;2022-10-17T05:15:14;18.00;99.90
39677;DHT22;27789;50.840;4.386;2022-10-17T05:17:40;18.00;99.90
39677;DHT22;27789;50.840;4.386;2022-10-17T05:20:06;18.00;99.90
39677;DHT22;27789;50.840;4.386;2022-10-17T05:22:32;18.00;99.90
39677;DHT22;27789;50.840;4.386;2022-10-17T05:24:58;18.00;99.90
39677;DHT22;27789;50.840;4.386;2022-10-17T05:27:23;18.10;99.90
39677;DHT22;27789;50.840;4.386;2022-10-17T05:29:49;18.00;99.90
39677;DHT22;27789;50.840;4.386;2022-10-17T05:32:15;18.10;99.90
39677;DHT22;27789;50.840;4.386;2022-10-17T05:34:41;18.10;99.90
39677;DHT22;27789;50.840;4.386;2022-10-17T05:37:06;18.10;99.90
39677;DHT22;27789;50.840;4.386;2022-10-17T05:39:32;18.00;99.90
39677;DHT22;27789;50.840;4.386;2022-10-17T05:41:58;18.10;99.90
39677;DHT22;27789;50.840;4.386;2022-10-17T05:44:23;18.10;99.90
39677;DHT22;27789;50.840;4.386;2022-10-17T05:46:49;18.10;99.90
39677;DHT22;27789;50.840;4.386;2022-10-17T05:49:15;18.20;99.90
39677;DHT22;27789;50.840;4.386;2022-10-17T05:51:41;18.10;99.90
39677;DHT22;27789;50.840;4.386;2022-10-17T05:54:07;18.20;99.90
39677;DHT22;27789;50.840;4.386;2022-10-17T05:56:35;18.20;99.90
39677;DHT22;27789;50.840;4.386;2022-10-17T05:59:01;18.30;99.90
39677;DHT22;27789;50.840;4.386;2022-10-17T06:01:27;18.20;99.90
39677;DHT22;27789;50.840;4.386;2022-10-17T06:03:52;18.20;99.90
39677;DHT22;27789;50.840;4.386;2022-10-17T06:06:18;18.20;99.90
39677;DHT22;27789;50.840;4.386;2022-10-17T06:08:44;18.20;99.90
39677;DHT22;27789;50.840;4.386;2022-10-17T06:11:10;18.10;99.90
39677;DHT22;27789;50.840;4.386;2022-10-17T06:13:37;18.20;99.90
39677;DHT22;27789;50.840;4.386;2022-10-17T06:16:03;18.20;99.90
39677;DHT22;27789;50.840;4.386;2022-10-17T06:18:28;18.20;99.90
39677;DHT22;27789;50.840;4.386;2022-10-17T06:21:01;18.30;99.90
39677;DHT22;27789;50.840;4.386;2022-10-17T06:23:27;18.20;99.90
39677;DHT22;27789;50.840;4.386;2022-10-17T06:25:52;18.20;99.90
39677;DHT22;27789;50.840;4.386;2022-10-17T06:28:18;18.20;99.90
39677;DHT22;27789;50.840;4.386;2022-10-17T06:30:43;18.20;99.90
39677;DHT22;27789;50.840;4.386;2022-10-17T06:33:09;18.20;99.90
39677;DHT22;27789;50.840;4.386;2022-10-17T06:35:35;18.20;99.90
39677;DHT22;27789;50.840;4.386;2022-10-17T06:38:02;18.30;99.90
39677;DHT22;27789;50.840;4.386;2022-10-17T06:40:28;18.30;99.90
39677;DHT22;27789;50.840;4.386;2022-10-17T06:42:55;18.30;99.90
39677;DHT22;27789;50.840;4.386;2022-10-17T06:45:20;18.30;99.90
39677;DHT22;27789;50.840;4.386;2022-10-17T06:47:46;18.30;99.90
39677;DHT22;27789;50.840;4.386;2022-10-17T06:50:12;18.40;99.90
39677;DHT22;27789;50.840;4.386;2022-10-17T06:52:37;18.40;99.90
39677;DHT22;27789;50.840;4.386;2022-10-17T06:55:04;18.50;99.90
39677;DHT22;27789;50.840;4.386;2022-10-17T06:57:29;18.50;99.90
39677;DHT22;27789;50.840;4.386;2022-10-17T06:59:55;18.50;99.90
39677;DHT22;27789;50.840;4.386;2022-10-17T07:02:22;18.50;99.90
39677;DHT22;27789;50.840;4.386;2022-10-17T07:04:48;18.60;99.90
39677;DHT22;27789;50.840;4.386;2022-10-17T07:07:14;18.60;99.90
39677;DHT22;27789;50.840;4.386;2022-10-17T07:09:39;18.60;99.90
39677;DHT22;27789;50.840;4.386;2022-10-17T07:34:51;18.80;99.90
39677;DHT22;27789;50.840;4.386;2022-10-17T07:37:17;20.20;99.90
39677;DHT22;27789;50.840;4.386;2022-10-17T07:39:42;19.90;99.90
39677;DHT22;27789;50.840;4.386;2022-10-17T07:42:08;19.60;99.90
39677;DHT22;27789;50.840;4.386;2022-10-17T07:44:34;19.60;99.90
39677;DHT22;27789;50.840;4.386;2022-10-17T07:47:00;19.60;99.90
39677;DHT22;27789;50.840;4.386;2022-10-17T07:49:26;19.50;99.90
39677;DHT22;27789;50.840;4.386;2022-10-17T07:51:52;19.30;99.90
39677;DHT22;27789;50.840;4.386;2022-10-17T07:54:17;19.40;99.90
39677;DHT22;27789;50.840;4.386;2022-10-17T07:56:43;19.30;99.90
39677;DHT22;27789;50.840;4.386;2022-10-17T07:59:18;19.40;99.90
39677;DHT22;27789;50.840;4.386;2022-10-17T08:01:46;19.60;99.90
39677;DHT22;27789;50.840;4.386;2022-10-17T08:04:12;19.50;99.90
39677;DHT22;27789;50.840;4.386;2022-10-17T08:06:38;19.50;99.90
39677;DHT22;27789;50.840;4.386;2022-10-17T08:09:05;19.50;99.90
39677;DHT22;27789;50.840;4.386;2022-10-17T08:11:30;19.60;99.90
39677;DHT22;27789;50.840;4.386;2022-10-17T08:13:56;19.60;99.90
39677;DHT22;27789;50.840;4.386;2022-10-17T08:16:23;19.50;99.90
39677;DHT22;27789;50.840;4.386;2022-10-17T08:18:49;19.50;99.90
39677;DHT22;27789;50.840;4.386;2022-10-17T08:21:14;19.30;99.90
39677;DHT22;27789;50.840;4.386;2022-10-17T08:23:40;19.20;99.90
39677;DHT22;27789;50.840;4.386;2022-10-17T08:26:09;19.10;99.90
39677;DHT22;27789;50.840;4.386;2022-10-17T08:28:38;19.00;99.90
39677;DHT22;27789;50.840;4.386;2022-10-17T08:31:13;19.10;99.90
39677;DHT22;27789;50.840;4.386;2022-10-17T08:33:41;19.20;99.90
39677;DHT22;27789;50.840;4.386;2022-10-17T08:36:11;19.30;99.90
39677;DHT22;27789;50.840;4.386;2022-10-17T08:38:37;19.40;99.90
39677;DHT22;27789;50.840;4.386;2022-10-17T08:41:20;19.50;99.90
39677;DHT22;27789;50.840;4.386;2022-10-17T08:44:01;19.50;99.90
39677;DHT22;27789;50.840;4.386;2022-10-17T08:46:38;19.50;99.90
39677;DHT22;27789;50.840;4.386;2022-10-17T08:49:13;19.50;99.90
39677;DHT22;27789;50.840;4.386;2022-10-17T08:51:49;19.60;99.90
39677;DHT22;27789;50.840;4.386;2022-10-17T08:54:21;19.60;99.90
39677;DHT22;27789;50.840;4.386;2022-10-17T08:56:50;19.60;99.90
39677;DHT22;27789;50.840;4.386;2022-10-17T08:59:24;19.50;99.90
39677;DHT22;27789;50.840;4.386;2022-10-17T09:02:13;19.50;99.90
39677;DHT22;27789;50.840;4.386;2022-10-17T09:07:46;19.40;99.90
39677;DHT22;27789;50.840;4.386;2022-10-17T09:10:24;19.40;99.90
39677;DHT22;27789;50.840;4.386;2022-10-17T09:13:39;19.20;99.90
39677;DHT22;27789;50.840;4.386;2022-10-17T09:16:13;19.30;99.90
39677;DHT22;27789;50.840;4.386;2022-10-17T09:18:51;19.30;99.90
39677;DHT22;27789;50.840;4.386;2022-10-17T09:24:05;18.90;99.90
39677;DHT22;27789;50.840;4.386;2022-10-17T09:26:34;18.80;99.90
39677;DHT22;27789;50.840;4.386;2022-10-17T09:29:00;18.80;99.90
39677;DHT22;27789;50.840;4.386;2022-10-17T09:31:31;18.60;99.90
39677;DHT22;27789;50.840;4.386;2022-10-17T09:34:00;18.40;99.90
39677;DHT22;27789;50.840;4.386;2022-10-17T09:36:32;18.40;99.90
39677;DHT22;27789;50.840;4.386;2022-10-17T09:39:00;18.30;99.90
39677;DHT22;27789;50.840;4.386;2022-10-17T09:41:33;18.20;99.90
39677;DHT22;27789;50.840;4.386;2022-10-17T09:44:13;18.20;99.90
39677;DHT22;27789;50.840;4.386;2022-10-17T09:46:39;18.40;99.90
39677;DHT22;27789;50.840;4.386;2022-10-17T09:49:16;18.60;99.90
39677;DHT22;27789;50.840;4.386;2022-10-17T09:51:43;18.60;99.90
39677;DHT22;27789;50.840;4.386;2022-10-17T09:54:21;18.70;99.90
39677;DHT22;27789;50.840;4.386;2022-10-17T09:57:00;18.60;99.90
39677;DHT22;27789;50.840;4.386;2022-10-17T10:02:28;18.70;99.90
39677;DHT22;27789;50.840;4.386;2022-10-17T10:07:37;18.50;99.90
39677;DHT22;27789;50.840;4.386;2022-10-17T10:10:06;18.70;99.90
39677;DHT22;27789;50.840;4.386;2022-10-17T10:12:36;18.90;99.90
39677;DHT22;27789;50.840;4.386;2022-10-17T10:17:59;19.20;99.90
39677;DHT22;27789;50.840;4.386;2022-10-17T10:25:49;19.40;99.90
39677;DHT22;27789;50.840;4.386;2022-10-17T10:28:16;19.40;99.90
39677;DHT22;27789;50.840;4.386;2022-10-17T10:30:46;19.30;99.90
39677;DHT22;27789;50.840;4.386;2022-10-17T10:33:12;19.30;99.90
39677;DHT22;27789;50.840;4.386;2022-10-17T10:35:38;19.40;99.90
39677;DHT22;27789;50.840;4.386;2022-10-17T10:38:09;19.50;99.90
39677;DHT22;27789;50.840;4.386;2022-10-17T10:40:49;19.40;99.90
39677;DHT22;27789;50.840;4.386;2022-10-17T10:46:24;19.20;99.90
39677;DHT22;27789;50.840;4.386;2022-10-17T10:48:59;19.00;99.90
39677;DHT22;27789;50.840;4.386;2022-10-17T10:51:32;19.10;99.90
39677;DHT22;27789;50.840;4.386;2022-10-17T10:56:49;18.90;99.90
39677;DHT22;27789;50.840;4.386;2022-10-17T10:59:28;18.90;99.90
39677;DHT22;27789;50.840;4.386;2022-10-17T11:02:14;19.00;99.90
39677;DHT22;27789;50.840;4.386;2022-10-17T11:07:35;18.90;99.90
39677;DHT22;27789;50.840;4.386;2022-10-17T11:13:21;18.80;99.90
39677;DHT22;27789;50.840;4.386;2022-10-17T11:26:59;19.10;99.90
39677;DHT22;27789;50.840;4.386;2022-10-17T11:29:30;19.30;99.90
39677;DHT22;27789;50.840;4.386;2022-10-17T11:31:59;19.40;99.90
39677;DHT22;27789;50.840;4.386;2022-10-17T11:34:30;19.50;99.90
39677;DHT22;27789;50.840;4.386;2022-10-17T11:37:04;19.40;99.90
39677;DHT22;27789;50.840;4.386;2022-10-17T11:42:23;19.60;99.90
39677;DHT22;27789;50.840;4.386;2022-10-17T11:44:55;19.50;99.90
39677;DHT22;27789;50.840;4.386;2022-10-17T11:52:47;19.40;99.90
39677;DHT22;27789;50.840;4.386;2022-10-17T11:55:22;19.50;99.90
39677;DHT22;27789;50.840;4.386;2022-10-17T12:00:46;19.50;99.90
39677;DHT22;27789;50.840;4.386;2022-10-17T12:09:25;19.50;99.90
39677;DHT22;27789;50.840;4.386;2022-10-17T12:11:56;19.70;99.90
39677;DHT22;27789;50.840;4.386;2022-10-17T12:14:38;19.70;99.90
39677;DHT22;27789;50.840;4.386;2022-10-17T12:19:51;19.80;99.90
39677;DHT22;27789;50.840;4.386;2022-10-17T12:22:25;19.70;99.90
39677;DHT22;27789;50.840;4.386;2022-10-17T12:24:57;19.70;99.90
39677;DHT22;27789;50.840;4.386;2022-10-17T12:27:36;19.70;99.90
39677;DHT22;27789;50.840;4.386;2022-10-17T12:30:15;19.70;99.90
39677;DHT22;27789;50.840;4.386;2022-10-17T12:32:52;19.70;99.90
39677;DHT22;27789;50.840;4.386;2022-10-17T12:35:21;19.60;99.90
39677;DHT22;27789;50.840;4.386;2022-10-17T12:45:54;19.90;99.90
39677;DHT22;27789;50.840;4.386;2022-10-17T12:56:42;19.70;99.90
39677;DHT22;27789;50.840;4.386;2022-10-17T13:01:43;19.50;99.90
39677;DHT22;27789;50.840;4.386;2022-10-17T13:04:10;19.50;99.90
39677;DHT22;27789;50.840;4.386;2022-10-17T13:06:42;19.50;99.90
39677;DHT22;27789;50.840;4.386;2022-10-17T13:11:59;19.50;99.90
39677;DHT22;27789;50.840;4.386;2022-10-17T13:14:26;19.50;99.90
39677;DHT22;27789;50.840;4.386;2022-10-17T13:16:56;19.60;99.90
39677;DHT22;27789;50.840;4.386;2022-10-17T13:19:25;19.70;99.90
39677;DHT22;27789;50.840;4.386;2022-10-17T13:21:59;19.70;99.90
39677;DHT22;27789;50.840;4.386;2022-10-17T13:24:37;19.70;99.90
39677;DHT22;27789;50.840;4.386;2022-10-17T13:27:04;19.80;99.90
39677;DHT22;27789;50.840;4.386;2022-10-17T13:29:30;19.80;99.90
39677;DHT22;27789;50.840;4.386;2022-10-17T13:32:04;19.80;99.90
39677;DHT22;27789;50.840;4.386;2022-10-17T13:34:31;20.00;99.90
39677;DHT22;27789;50.840;4.386;2022-10-17T13:37:00;20.20;99.90
39677;DHT22;27789;50.840;4.386;2022-10-17T13:39:29;20.10;99.90
39677;DHT22;27789;50.840;4.386;2022-10-17T13:41:58;20.20;99.90
39677;DHT22;27789;50.840;4.386;2022-10-17T13:44:27;20.30;99.90
39677;DHT22;27789;50.840;4.386;2022-10-17T13:46:53;20.30;99.90
39677;DHT22;27789;50.840;4.386;2022-10-17T13:51:55;20.10;99.90
39677;DHT22;27789;50.840;4.386;2022-10-17T13:57:00;19.90;99.90
39677;DHT22;27789;50.840;4.386;2022-10-17T13:59:37;19.80;99.90
39677;DHT22;27789;50.840;4.386;2022-10-17T14:02:05;19.70;99.90
39677;DHT22;27789;50.840;4.386;2022-10-17T14:04:37;19.60;99.90
39677;DHT22;27789;50.840;4.386;2022-10-17T14:07:04;19.60;99.90
39677;DHT22;27789;50.840;4.386;2022-10-17T14:09:31;19.70;99.90
39677;DHT22;27789;50.840;4.386;2022-10-17T14:12:08;19.60;99.90
39677;DHT22;27789;50.840;4.386;2022-10-17T14:14:37;19.60;99.90
39677;DHT22;27789;50.840;4.386;2022-10-17T14:20:16;19.60;99.90
39677;DHT22;27789;50.840;4.386;2022-10-17T14:22:42;19.60;99.90
39677;DHT22;27789;50.840;4.386;2022-10-17T14:25:28;19.50;99.90
39677;DHT22;27789;50.840;4.386;2022-10-17T14:28:00;19.60;99.90
39677;DHT22;27789;50.840;4.386;2022-10-17T14:30:36;19.60;99.90
39677;DHT22;27789;50.840;4.386;2022-10-17T14:33:05;19.60;99.90
39677;DHT22;27789;50.840;4.386;2022-10-17T14:35:31;19.60;99.90
39677;DHT22;27789;50.840;4.386;2022-10-17T14:38:02;19.60;99.90
39677;DHT22;27789;50.840;4.386;2022-10-17T14:40:30;19.60;99.90
39677;DHT22;27789;50.840;4.386;2022-10-17T14:42:58;19.50;99.90
39677;DHT22;27789;50.840;4.386;2022-10-17T14:45:31;19.60;99.90
39677;DHT22;27789;50.840;4.386;2022-10-17T14:48:11;19.60;99.90
39677;DHT22;27789;50.840;4.386;2022-10-17T14:50:38;19.60;99.90
39677;DHT22;27789;50.840;4.386;2022-10-17T14:53:05;19.60;99.90
39677;DHT22;27789;50.840;4.386;2022-10-17T14:55:34;19.60;99.90
39677;DHT22;27789;50.840;4.386;2022-10-17T14:58:00;19.60;99.90
39677;DHT22;27789;50.840;4.386;2022-10-17T15:00:26;19.60;99.90
39677;DHT22;27789;50.840;4.386;2022-10-17T15:02:53;19.60;99.90
39677;DHT22;27789;50.840;4.386;2022-10-17T15:05:20;19.60;99.90
39677;DHT22;27789;50.840;4.386;2022-10-17T15:07:47;19.50;99.90
39677;DHT22;27789;50.840;4.386;2022-10-17T15:10:35;19.60;99.90
39677;DHT22;27789;50.840;4.386;2022-10-17T15:13:02;19.50;99.90
39677;DHT22;27789;50.840;4.386;2022-10-17T15:15:28;19.50;99.90
39677;DHT22;27789;50.840;4.386;2022-10-17T15:17:54;19.50;99.90
39677;DHT22;27789;50.840;4.386;2022-10-17T15:20:20;19.50;99.90
39677;DHT22;27789;50.840;4.386;2022-10-17T15:22:53;19.50;99.90
39677;DHT22;27789;50.840;4.386;2022-10-17T15:25:19;19.50;99.90
39677;DHT22;27789;50.840;4.386;2022-10-17T15:27:44;19.50;99.90
39677;DHT22;27789;50.840;4.386;2022-10-17T15:32:48;19.40;99.90
39677;DHT22;27789;50.840;4.386;2022-10-17T15:35:14;19.40;99.90
39677;DHT22;27789;50.840;4.386;2022-10-17T15:37:40;19.40;99.90
39677;DHT22;27789;50.840;4.386;2022-10-17T15:40:13;19.40;99.90
39677;DHT22;27789;50.840;4.386;2022-10-17T15:42:39;19.40;99.90
39677;DHT22;27789;50.840;4.386;2022-10-17T15:45:05;19.40;99.90
39677;DHT22;27789;50.840;4.386;2022-10-17T15:47:32;19.40;99.90
39677;DHT22;27789;50.840;4.386;2022-10-17T15:49:59;19.30;99.90
39677;DHT22;27789;50.840;4.386;2022-10-17T15:52:25;19.30;99.90
39677;DHT22;27789;50.840;4.386;2022-10-17T15:54:52;19.30;99.90
39677;DHT22;27789;50.840;4.386;2022-10-17T15:57:26;19.30;99.90
39677;DHT22;27789;50.840;4.386;2022-10-17T15:59:53;19.30;99.90
39677;DHT22;27789;50.840;4.386;2022-10-17T16:02:21;19.20;99.90
39677;DHT22;27789;50.840;4.386;2022-10-17T16:04:48;19.20;99.90
39677;DHT22;27789;50.840;4.386;2022-10-17T16:07:13;19.20;99.90
39677;DHT22;27789;50.840;4.386;2022-10-17T16:09:39;19.20;99.90
39677;DHT22;27789;50.840;4.386;2022-10-17T16:12:09;19.20;99.90
39677;DHT22;27789;50.840;4.386;2022-10-17T16:14:35;19.20;99.90
39677;DHT22;27789;50.840;4.386;2022-10-17T16:17:01;19.10;99.90
39677;DHT22;27789;50.840;4.386;2022-10-17T16:19:27;19.10;99.90
39677;DHT22;27789;50.840;4.386;2022-10-17T16:21:57;19.10;99.90
39677;DHT22;27789;50.840;4.386;2022-10-17T16:24:25;19.10;99.90
39677;DHT22;27789;50.840;4.386;2022-10-17T16:26:51;19.10;99.90
39677;DHT22;27789;50.840;4.386;2022-10-17T16:29:16;19.00;99.90
39677;DHT22;27789;50.840;4.386;2022-10-17T16:31:44;19.00;99.90
39677;DHT22;27789;50.840;4.386;2022-10-17T16:34:13;19.00;99.90
39677;DHT22;27789;50.840;4.386;2022-10-17T16:36:40;19.00;99.90
39677;DHT22;27789;50.840;4.386;2022-10-17T16:39:06;19.00;99.90
39677;DHT22;27789;50.840;4.386;2022-10-17T16:41:34;19.00;99.90
39677;DHT22;27789;50.840;4.386;2022-10-17T16:44:09;18.90;99.90
39677;DHT22;27789;50.840;4.386;2022-10-17T16:46:36;18.90;99.90
39677;DHT22;27789;50.840;4.386;2022-10-17T16:49:06;18.90;99.90
39677;DHT22;27789;50.840;4.386;2022-10-17T16:51:32;18.90;99.90
39677;DHT22;27789;50.840;4.386;2022-10-17T16:54:00;18.80;99.90
39677;DHT22;27789;50.840;4.386;2022-10-17T16:56:26;18.80;99.90
39677;DHT22;27789;50.840;4.386;2022-10-17T16:58:57;18.80;99.90
39677;DHT22;27789;50.840;4.386;2022-10-17T17:01:24;18.80;99.90
39677;DHT22;27789;50.840;4.386;2022-10-17T17:03:50;18.80;99.90
39677;DHT22;27789;50.840;4.386;2022-10-17T17:06:27;18.80;99.90
39677;DHT22;27789;50.840;4.386;2022-10-17T17:08:54;18.80;99.90
39677;DHT22;27789;50.840;4.386;2022-10-17T17:11:22;18.70;99.90
39677;DHT22;27789;50.840;4.386;2022-10-17T17:13:48;18.80;99.90
39677;DHT22;27789;50.840;4.386;2022-10-17T17:16:23;18.70;99.90
39677;DHT22;27789;50.840;4.386;2022-10-17T17:18:59;18.70;99.90
39677;DHT22;27789;50.840;4.386;2022-10-17T17:21:25;18.70;99.90
39677;DHT22;27789;50.840;4.386;2022-10-17T17:23:52;18.60;99.90
39677;DHT22;27789;50.840;4.386;2022-10-17T17:26:21;18.60;99.90
39677;DHT22;27789;50.840;4.386;2022-10-17T17:28:50;18.60;99.90
39677;DHT22;27789;50.840;4.386;2022-10-17T17:31:22;18.60;99.90
39677;DHT22;27789;50.840;4.386;2022-10-17T17:33:49;18.60;99.90
39677;DHT22;27789;50.840;4.386;2022-10-17T17:36:17;18.50;99.90
39677;DHT22;27789;50.840;4.386;2022-10-17T17:38:44;18.50;99.90
39677;DHT22;27789;50.840;4.386;2022-10-17T17:41:11;18.40;99.90
39677;DHT22;27789;50.840;4.386;2022-10-17T17:43:38;18.40;99.90
39677;DHT22;27789;50.840;4.386;2022-10-17T17:46:04;18.40;99.90
39677;DHT22;27789;50.840;4.386;2022-10-17T17:48:29;18.40;99.90
39677;DHT22;27789;50.840;4.386;2022-10-17T17:50:55;18.40;99.90
39677;DHT22;27789;50.840;4.386;2022-10-17T17:53:21;18.30;99.90
39677;DHT22;27789;50.840;4.386;2022-10-17T17:55:46;18.30;99.90
39677;DHT22;27789;50.840;4.386;2022-10-17T17:58:12;18.30;99.90
39677;DHT22;27789;50.840;4.386;2022-10-17T18:00:39;18.30;99.90
39677;DHT22;27789;50.840;4.386;2022-10-17T18:03:05;18.30;99.90
39677;DHT22;27789;50.840;4.386;2022-10-17T18:05:31;18.30;99.90
39677;DHT22;27789;50.840;4.386;2022-10-17T18:07:57;18.20;99.90
39677;DHT22;27789;50.840;4.386;2022-10-17T18:10:22;18.20;99.90
39677;DHT22;27789;50.840;4.386;2022-10-17T18:12:48;18.30;99.90
39677;DHT22;27789;50.840;4.386;2022-10-17T18:15:14;18.20;99.90